createdAt,value
2017-09-16T00:00:33.940Z,83.5
2017-09-16T00:01:14.506Z,83.83
2017-09-16T00:01:55.062Z,83.5
2017-09-16T00:02:35.642Z,83.06
2017-09-16T00:03:16.217Z,83.93
2017-09-16T00:03:56.786Z,83.73
2017-09-16T00:04:37.346Z,83.79
2017-09-16T00:05:17.904Z,84.69
2017-09-16T00:05:58.470Z,84.36
2017-09-16T00:06:39.052Z,84.36
2017-09-16T00:07:19.603Z,84.08
2017-09-16T00:08:00.200Z,84.08
2017-09-16T00:08:40.736Z,84.75
2017-09-16T00:09:21.301Z,83.89
2017-09-16T00:10:01.868Z,83.89
2017-09-16T00:10:42.406Z,84.02
2017-09-16T00:11:22.973Z,83.98
2017-09-16T00:12:03.536Z,83.69
2017-09-16T00:12:44.102Z,83.5
2017-09-16T00:13:24.665Z,83.54
2017-09-16T00:14:05.253Z,83.79
2017-09-16T00:14:45.790Z,83.73
2017-09-16T00:15:26.358Z,82.64
2017-09-16T00:16:06.931Z,83.26
2017-09-16T00:16:47.497Z,83.73
2017-09-16T00:17:28.056Z,83.73
2017-09-16T00:18:08.620Z,83.69
2017-09-16T00:18:49.167Z,83.03
2017-09-16T00:19:29.731Z,83.36
2017-09-16T00:20:10.290Z,83.31
2017-09-16T00:20:50.874Z,83.26
2017-09-16T00:21:31.423Z,83.31
2017-09-16T00:22:12.004Z,83.69
2017-09-16T00:22:52.569Z,83.89
2017-09-16T00:23:33.135Z,83.69
2017-09-16T00:24:13.700Z,83.31
2017-09-16T00:24:54.268Z,83.31
2017-09-16T00:25:34.824Z,83.12
2017-09-16T00:26:15.388Z,83.4
2017-09-16T00:26:55.938Z,82.64
2017-09-16T00:27:36.507Z,83.22
2017-09-16T00:28:17.074Z,83.5
2017-09-16T00:28:57.635Z,83.5
2017-09-16T00:29:38.195Z,83.31
2017-09-16T00:30:18.760Z,82.83
2017-09-16T00:30:59.318Z,82.83
2017-09-16T00:31:39.881Z,82.83
2017-09-16T00:32:20.442Z,82.74
2017-09-16T00:33:01.012Z,82.83
2017-09-16T00:33:41.569Z,82.93
2017-09-16T00:34:22.134Z,83.12
2017-09-16T00:35:02.710Z,82.93
2017-09-16T00:35:43.279Z,83.03
2017-09-16T00:36:23.828Z,83.03
2017-09-16T00:37:04.405Z,83.12
2017-09-16T00:37:44.955Z,81.97
2017-09-16T00:38:25.510Z,83.12
2017-09-16T00:39:06.061Z,82.83
2017-09-16T00:39:46.631Z,83.22
2017-09-16T00:40:27.201Z,83.22
2017-09-16T00:41:07.768Z,82.93
2017-09-16T00:41:48.343Z,82.83
2017-09-16T00:42:28.916Z,83.03
2017-09-16T00:43:09.475Z,82.93
2017-09-16T00:43:50.027Z,83.03
2017-09-16T00:44:30.604Z,83.22
2017-09-16T00:45:11.162Z,83.22
2017-09-16T00:45:51.725Z,82.93
2017-09-16T00:46:32.280Z,82.45
2017-09-16T00:47:12.844Z,82.74
2017-09-16T00:47:53.399Z,83.22
2017-09-16T00:48:33.969Z,83.03
2017-09-16T00:49:14.518Z,83.5
2017-09-16T00:49:55.088Z,83.31
2017-09-16T00:50:35.712Z,83.03
2017-09-16T00:51:16.244Z,82.83
2017-09-16T00:51:56.790Z,83.22
2017-09-16T00:52:37.354Z,83.31
2017-09-16T00:53:17.912Z,83.03
2017-09-16T00:53:58.485Z,83.12
2017-09-16T00:54:39.053Z,83.6
2017-09-16T00:55:19.612Z,83.03
2017-09-16T00:56:00.182Z,83.22
2017-09-16T00:56:40.751Z,83.5
2017-09-16T00:57:21.323Z,83.6
2017-09-16T00:58:01.893Z,83.22
2017-09-16T00:58:42.441Z,83.5
2017-09-16T00:59:23.012Z,83.4
2017-09-16T01:00:03.590Z,83.79
2017-09-16T01:00:44.150Z,83.31
2017-09-16T01:01:24.714Z,83.03
2017-09-16T01:02:05.272Z,82.74
2017-09-16T01:02:45.839Z,82.35
2017-09-16T01:03:26.402Z,82.07
2017-09-16T01:04:06.948Z,82.54
2017-09-16T01:04:47.516Z,82.17
2017-09-16T01:05:28.078Z,82.83
2017-09-16T01:06:08.634Z,82.64
2017-09-16T01:06:49.184Z,82.26
2017-09-16T01:07:29.738Z,81.97
2017-09-16T01:08:10.302Z,81.88
2017-09-16T01:08:50.876Z,82.26
2017-09-16T01:09:31.431Z,81.88
2017-09-16T01:10:12.003Z,82.26
2017-09-16T01:10:52.567Z,82.64
2017-09-16T01:11:33.144Z,82.26
2017-09-16T01:12:13.708Z,81.88
2017-09-16T01:12:54.290Z,82.45
2017-09-16T01:13:34.836Z,83.03
2017-09-16T01:14:15.396Z,82.45
2017-09-16T01:14:55.956Z,82.45
2017-09-16T01:15:36.536Z,81.88
2017-09-16T01:16:17.106Z,82.17
2017-09-16T01:16:57.649Z,82.26
2017-09-16T01:17:38.223Z,82.35
2017-09-16T01:18:18.783Z,82.45
2017-09-16T01:18:59.359Z,82.17
2017-09-16T01:19:39.906Z,81.78
2017-09-16T01:20:20.475Z,82.26
2017-09-16T01:21:01.021Z,82.17
2017-09-16T01:21:41.609Z,81.97
2017-09-16T01:22:22.167Z,82.07
2017-09-16T01:23:02.740Z,81.88
2017-09-16T01:23:43.303Z,82.17
2017-09-16T01:24:23.860Z,81.68
2017-09-16T01:25:04.426Z,81.97
2017-09-16T01:25:44.989Z,81.78
2017-09-16T01:26:25.557Z,82.07
2017-09-16T01:27:06.134Z,82.17
2017-09-16T01:27:46.688Z,82.83
2017-09-16T01:28:27.254Z,82.35
2017-09-16T01:29:07.816Z,82.83
2017-09-16T01:29:48.381Z,82.35
2017-09-16T01:30:28.937Z,82.45
2017-09-16T01:31:09.497Z,82.54
2017-09-16T01:31:50.064Z,82.17
2017-09-16T01:32:30.630Z,82.17
2017-09-16T01:33:11.209Z,82.26
2017-09-16T01:33:51.752Z,81.97
2017-09-16T01:34:32.328Z,81.97
2017-09-16T01:35:12.885Z,82.35
2017-09-16T01:35:53.442Z,81.88
2017-09-16T01:36:34.004Z,82.45
2017-09-16T01:37:14.567Z,82.17
2017-09-16T01:37:55.139Z,81.97
2017-09-16T01:38:35.695Z,82.26
2017-09-16T01:39:16.259Z,82.07
2017-09-16T01:39:56.829Z,82.17
2017-09-16T01:40:37.392Z,82.64
2017-09-16T01:41:17.963Z,82.35
2017-09-16T01:41:58.515Z,82.64
2017-09-16T01:42:39.084Z,82.45
2017-09-16T01:43:19.647Z,82.45
2017-09-16T01:44:00.187Z,82.83
2017-09-16T01:44:40.750Z,82.54
2017-09-16T01:45:21.309Z,82.17
2017-09-16T01:46:01.873Z,82.54
2017-09-16T01:46:42.440Z,82.6
2017-09-16T01:47:22.994Z,82.35
2017-09-16T01:48:03.572Z,82.35
2017-09-16T01:48:44.124Z,82.45
2017-09-16T01:49:24.670Z,82.12
2017-09-16T01:50:05.225Z,81.88
2017-09-16T01:50:45.788Z,81.97
2017-09-16T01:51:26.355Z,82.17
2017-09-16T01:52:06.916Z,82.26
2017-09-16T01:52:47.474Z,82.26
2017-09-16T01:53:28.037Z,82.54
2017-09-16T01:54:08.590Z,82.17
2017-09-16T01:54:49.150Z,82.35
2017-09-16T01:55:29.713Z,82.54
2017-09-16T01:56:10.278Z,82.17
2017-09-16T01:56:50.837Z,82.31
2017-09-16T01:57:31.384Z,82.12
2017-09-16T01:58:11.950Z,82.07
2017-09-16T01:58:52.517Z,82.22
2017-09-16T01:59:33.069Z,82.07
2017-09-16T02:00:13.654Z,82.26
2017-09-16T02:00:54.189Z,82.22
2017-09-16T02:01:34.778Z,82.35
2017-09-16T02:02:15.338Z,82.35
2017-09-16T02:02:55.902Z,81.97
2017-09-16T02:03:36.466Z,82.45
2017-09-16T02:04:17.016Z,82.45
2017-09-16T02:04:57.584Z,82.45
2017-09-16T02:05:38.172Z,82.17
2017-09-16T02:06:18.732Z,82.45
2017-09-16T02:06:59.291Z,82.31
2017-09-16T02:07:39.858Z,81.74
2017-09-16T02:08:20.407Z,82.07
2017-09-16T02:09:00.964Z,82.54
2017-09-16T02:09:41.529Z,82.45
2017-09-16T02:10:22.088Z,82.35
2017-09-16T02:11:02.650Z,82.45
2017-09-16T02:11:43.210Z,82.41
2017-09-16T02:12:23.800Z,82.22
2017-09-16T02:13:04.359Z,82.03
2017-09-16T02:13:44.917Z,82.35
2017-09-16T02:14:25.490Z,81.78
2017-09-16T02:15:06.045Z,81.65
2017-09-16T02:15:46.612Z,82.31
2017-09-16T02:16:27.161Z,81.74
2017-09-16T02:17:07.743Z,82.07
2017-09-16T02:17:48.307Z,82.41
2017-09-16T02:18:28.856Z,82.12
2017-09-16T02:19:09.422Z,82.22
2017-09-16T02:19:49.968Z,82.31
2017-09-16T02:20:30.530Z,81.93
2017-09-16T02:21:11.104Z,82.07
2017-09-16T02:21:51.645Z,82.22
2017-09-16T02:22:32.221Z,82.31
2017-09-16T02:23:12.798Z,82.03
2017-09-16T02:23:53.354Z,82.12
2017-09-16T02:24:33.896Z,82.03
2017-09-16T02:25:14.463Z,81.93
2017-09-16T02:25:55.015Z,81.93
2017-09-16T02:26:35.578Z,82.31
2017-09-16T02:27:16.153Z,82.17
2017-09-16T02:27:56.715Z,82.07
2017-09-16T02:28:37.286Z,82.31
2017-09-16T02:29:17.846Z,82.12
2017-09-16T02:29:58.395Z,82.22
2017-09-16T02:30:38.954Z,82.22
2017-09-16T02:31:19.523Z,82.79
2017-09-16T02:32:00.084Z,82.51
2017-09-16T02:32:40.635Z,82.41
2017-09-16T02:33:21.202Z,82.03
2017-09-16T02:34:01.761Z,82.22
2017-09-16T02:34:42.322Z,82.03
2017-09-16T02:35:22.881Z,82.12
2017-09-16T02:36:03.445Z,81.74
2017-09-16T02:36:44.020Z,82.22
2017-09-16T02:37:24.591Z,81.93
2017-09-16T02:38:05.146Z,82.22
2017-09-16T02:38:45.720Z,82.12
2017-09-16T02:39:26.271Z,82.03
2017-09-16T02:40:06.838Z,82.31
2017-09-16T02:40:47.410Z,82.22
2017-09-16T02:41:27.969Z,82.12
2017-09-16T02:42:08.531Z,82.03
2017-09-16T02:42:49.085Z,82.51
2017-09-16T02:43:29.645Z,82.12
2017-09-16T02:44:10.208Z,82.31
2017-09-16T02:44:50.774Z,81.84
2017-09-16T02:45:31.336Z,81.93
2017-09-16T02:46:11.904Z,82.31
2017-09-16T02:46:52.467Z,82.31
2017-09-16T02:47:33.014Z,82.41
2017-09-16T02:48:13.578Z,82.51
2017-09-16T02:48:54.125Z,82.41
2017-09-16T02:49:34.688Z,81.93
2017-09-16T02:50:15.241Z,81.93
2017-09-16T02:50:55.792Z,82.22
2017-09-16T02:51:36.353Z,82.51
2017-09-16T02:52:16.908Z,82.22
2017-09-16T02:52:57.481Z,82.31
2017-09-16T02:53:38.041Z,82.51
2017-09-16T02:54:18.617Z,82.03
2017-09-16T02:54:59.200Z,81.93
2017-09-16T02:55:39.757Z,82.31
2017-09-16T02:56:20.327Z,82.22
2017-09-16T02:57:00.883Z,82.31
2017-09-16T02:57:41.424Z,82.03
2017-09-16T02:58:21.984Z,82.12
2017-09-16T02:59:02.545Z,82.31
2017-09-16T02:59:43.088Z,82.31
2017-09-16T03:00:23.667Z,82.51
2017-09-16T03:01:04.229Z,82.41
2017-09-16T03:01:44.777Z,82.22
2017-09-16T03:02:25.335Z,81.93
2017-09-16T03:03:05.893Z,82.31
2017-09-16T03:03:46.456Z,81.93
2017-09-16T03:04:27.013Z,81.65
2017-09-16T03:05:07.586Z,81.65
2017-09-16T03:05:48.144Z,81.74
2017-09-16T03:06:28.683Z,81.55
2017-09-16T03:07:09.217Z,81.84
2017-09-16T03:07:49.789Z,81.74
2017-09-16T03:08:30.360Z,81.93
2017-09-16T03:09:10.917Z,81.84
2017-09-16T03:09:51.481Z,81.07
2017-09-16T03:10:32.043Z,81.65
2017-09-16T03:11:12.608Z,81.45
2017-09-16T03:11:53.176Z,81.36
2017-09-16T03:12:33.733Z,81.74
2017-09-16T03:13:14.274Z,81.84
2017-09-16T03:13:54.827Z,81.26
2017-09-16T03:14:35.388Z,81.65
2017-09-16T03:15:15.932Z,81.26
2017-09-16T03:15:56.498Z,81.26
2017-09-16T03:16:37.076Z,81.36
2017-09-16T03:17:17.632Z,81.07
2017-09-16T03:17:58.198Z,81.36
2017-09-16T03:18:38.766Z,81.16
2017-09-16T03:19:19.308Z,81.55
2017-09-16T03:19:59.864Z,81.16
2017-09-16T03:20:40.428Z,81.93
2017-09-16T03:21:20.982Z,82.41
2017-09-16T03:22:01.555Z,82.12
2017-09-16T03:22:42.119Z,82.22
2017-09-16T03:23:22.673Z,82.41
2017-09-16T03:24:03.248Z,82.31
2017-09-16T03:24:43.814Z,82.31
2017-09-16T03:25:24.375Z,82.03
2017-09-16T03:26:04.936Z,82.03
2017-09-16T03:26:45.490Z,81.84
2017-09-16T03:27:26.062Z,81.36
2017-09-16T03:28:06.612Z,81.65
2017-09-16T03:28:47.159Z,81.55
2017-09-16T03:29:27.736Z,81.74
2017-09-16T03:30:08.310Z,81.74
2017-09-16T03:30:48.865Z,81.84
2017-09-16T03:31:29.453Z,81.65
2017-09-16T03:32:10.009Z,81.36
2017-09-16T03:32:50.575Z,81.74
2017-09-16T03:33:31.124Z,81.84
2017-09-16T03:34:11.715Z,81.65
2017-09-16T03:34:52.298Z,81.55
2017-09-16T03:35:32.857Z,81.36
2017-09-16T03:36:13.418Z,81.26
2017-09-16T03:36:53.978Z,81.26
2017-09-16T03:37:34.515Z,81.45
2017-09-16T03:38:15.096Z,81.36
2017-09-16T03:38:55.659Z,81.36
2017-09-16T03:39:36.225Z,81.07
2017-09-16T03:40:16.793Z,81.26
2017-09-16T03:40:57.353Z,81.45
2017-09-16T03:41:37.917Z,81.45
2017-09-16T03:42:18.466Z,81.65
2017-09-16T03:42:59.027Z,81.84
2017-09-16T03:43:39.583Z,81.84
2017-09-16T03:44:20.139Z,81.65
2017-09-16T03:45:00.730Z,81.89
2017-09-16T03:45:41.253Z,82.28
2017-09-16T03:46:21.829Z,82.37
2017-09-16T03:47:02.383Z,82.12
2017-09-16T03:47:42.935Z,82.03
2017-09-16T03:48:23.492Z,82.28
2017-09-16T03:49:04.052Z,82.31
2017-09-16T03:49:44.620Z,81.65
2017-09-16T03:50:25.174Z,81.45
2017-09-16T03:51:05.738Z,81.74
2017-09-16T03:51:46.287Z,81.36
2017-09-16T03:52:26.842Z,81.6
2017-09-16T03:53:07.403Z,81.7
2017-09-16T03:53:47.935Z,81.99
2017-09-16T03:54:28.483Z,81.74
2017-09-16T03:55:09.014Z,81.89
2017-09-16T03:55:49.575Z,81.84
2017-09-16T03:56:30.137Z,81.84
2017-09-16T03:57:10.691Z,81.6
2017-09-16T03:57:51.243Z,82.08
2017-09-16T03:58:31.797Z,82.28
2017-09-16T03:59:12.352Z,81.79
2017-09-16T03:59:52.897Z,81.84
2017-09-16T04:00:33.441Z,81.7
2017-09-16T04:01:13.988Z,81.93
2017-09-16T04:01:54.548Z,81.41
2017-09-16T04:02:35.102Z,81.22
2017-09-16T04:03:15.653Z,81.22
2017-09-16T04:03:56.205Z,81.41
2017-09-16T04:04:36.752Z,81.26
2017-09-16T04:05:17.303Z,81.65
2017-09-16T04:05:57.850Z,81.36
2017-09-16T04:06:38.412Z,81.03
2017-09-16T04:07:18.968Z,81.45
2017-09-16T04:07:59.523Z,81.26
2017-09-16T04:08:40.073Z,81.41
2017-09-16T04:09:20.645Z,81.32
2017-09-16T04:10:01.192Z,81.89
2017-09-16T04:10:41.760Z,81.7
2017-09-16T04:11:22.319Z,81.6
2017-09-16T04:12:02.883Z,81.6
2017-09-16T04:12:43.455Z,81.7
2017-09-16T04:13:24.019Z,81.6
2017-09-16T04:14:04.578Z,81.22
2017-09-16T04:14:45.139Z,81.13
2017-09-16T04:15:25.709Z,81.51
2017-09-16T04:16:06.263Z,80.55
2017-09-16T04:16:46.827Z,80.65
2017-09-16T04:17:27.405Z,80.65
2017-09-16T04:18:07.970Z,80.55
2017-09-16T04:18:48.519Z,80.65
2017-09-16T04:19:29.095Z,81.41
2017-09-16T04:20:09.658Z,81.41
2017-09-16T04:20:50.199Z,80.84
2017-09-16T04:21:30.766Z,80.65
2017-09-16T04:22:11.335Z,80.93
2017-09-16T04:22:51.888Z,80.27
2017-09-16T04:23:32.469Z,80.93
2017-09-16T04:24:13.045Z,80.84
2017-09-16T04:24:53.633Z,80.84
2017-09-16T04:25:34.199Z,80.84
2017-09-16T04:26:14.750Z,80.27
2017-09-16T04:26:55.309Z,80.93
2017-09-16T04:27:35.879Z,80.93
2017-09-16T04:28:16.434Z,80.74
2017-09-16T04:28:57.029Z,80.65
2017-09-16T04:29:37.627Z,81.6
2017-09-16T04:30:18.153Z,81.13
2017-09-16T04:30:58.710Z,81.41
2017-09-16T04:31:39.271Z,81.13
2017-09-16T04:32:19.820Z,81.22
2017-09-16T04:33:00.374Z,81.41
2017-09-16T04:33:40.932Z,81.51
2017-09-16T04:34:21.479Z,81.79
2017-09-16T04:35:02.017Z,81.13
2017-09-16T04:35:42.586Z,81.13
2017-09-16T04:36:23.135Z,81.41
2017-09-16T04:37:03.692Z,81.41
2017-09-16T04:37:44.248Z,81.13
2017-09-16T04:38:24.818Z,81.6
2017-09-16T04:39:05.370Z,81.22
2017-09-16T04:39:45.938Z,81.22
2017-09-16T04:40:26.498Z,81.6
2017-09-16T04:41:07.058Z,81.32
2017-09-16T04:41:47.614Z,81.32
2017-09-16T04:42:28.188Z,81.13
2017-09-16T04:43:08.744Z,81.22
2017-09-16T04:43:49.292Z,81.22
2017-09-16T04:44:29.849Z,81.51
2017-09-16T04:45:10.394Z,80.65
2017-09-16T04:45:50.932Z,81.41
2017-09-16T04:46:31.494Z,81.22
2017-09-16T04:47:12.043Z,81.22
2017-09-16T04:47:52.600Z,81.41
2017-09-16T04:48:33.134Z,81.22
2017-09-16T04:49:13.678Z,81.22
2017-09-16T04:49:54.249Z,81.22
2017-09-16T04:50:34.805Z,80.65
2017-09-16T04:51:15.381Z,80.84
2017-09-16T04:51:55.932Z,80.55
2017-09-16T04:52:36.493Z,80.93
2017-09-16T04:53:17.071Z,81.03
2017-09-16T04:53:57.646Z,81.03
2017-09-16T04:54:38.200Z,81.03
2017-09-16T04:55:18.745Z,80.74
2017-09-16T04:55:59.310Z,80.46
2017-09-16T04:56:39.861Z,80.74
2017-09-16T04:57:20.440Z,80.74
2017-09-16T04:58:00.998Z,81.22
2017-09-16T04:58:41.555Z,81.22
2017-09-16T04:59:22.122Z,80.84
2017-09-16T05:00:02.695Z,80.74
2017-09-16T05:00:43.258Z,80.65
2017-09-16T05:01:23.833Z,80.55
2017-09-16T05:02:04.382Z,80.65
2017-09-16T05:02:44.936Z,80.46
2017-09-16T05:03:25.503Z,80.84
2017-09-16T05:04:06.119Z,80.55
2017-09-16T05:04:46.859Z,80.27
2017-09-16T05:05:27.497Z,80.74
2017-09-16T05:06:08.063Z,80.46
2017-09-16T05:06:48.625Z,80.46
2017-09-16T05:07:29.184Z,80.27
2017-09-16T05:08:09.773Z,80.65
2017-09-16T05:08:50.347Z,80.65
2017-09-16T05:09:30.925Z,80.46
2017-09-16T05:10:11.504Z,80.55
2017-09-16T05:10:52.062Z,80.46
2017-09-16T05:11:32.604Z,80.46
2017-09-16T05:12:13.197Z,80.46
2017-09-16T05:12:53.764Z,80.65
2017-09-16T05:13:34.334Z,80.93
2017-09-16T05:14:14.882Z,80.93
2017-09-16T05:14:55.439Z,80.55
2017-09-16T05:15:35.984Z,80.46
2017-09-16T05:16:16.558Z,80.46
2017-09-16T05:16:57.103Z,80.55
2017-09-16T05:17:37.682Z,80.74
2017-09-16T05:18:18.249Z,80.74
2017-09-16T05:18:58.807Z,80.55
2017-09-16T05:19:39.358Z,79.69
2017-09-16T05:20:19.931Z,79.98
2017-09-16T05:21:00.503Z,79.88
2017-09-16T05:21:41.056Z,80.07
2017-09-16T05:22:21.608Z,79.88
2017-09-16T05:23:02.905Z,80.07
2017-09-16T05:23:42.747Z,79.6
2017-09-16T05:24:23.311Z,79.88
2017-09-16T05:25:03.869Z,79.88
2017-09-16T05:25:44.415Z,79.98
2017-09-16T05:26:24.984Z,79.98
2017-09-16T05:27:05.543Z,79.98
2017-09-16T05:27:46.117Z,80.17
2017-09-16T05:28:26.671Z,80.07
2017-09-16T05:29:07.233Z,80.17
2017-09-16T05:29:47.805Z,79.54
2017-09-16T05:30:28.366Z,79.35
2017-09-16T05:31:08.940Z,79.54
2017-09-16T05:31:49.524Z,79.25
2017-09-16T05:32:30.120Z,80.07
2017-09-16T05:33:10.689Z,80.17
2017-09-16T05:33:51.252Z,79.44
2017-09-16T05:34:31.807Z,79.69
2017-09-16T05:35:12.374Z,79.79
2017-09-16T05:35:52.934Z,79.79
2017-09-16T05:36:33.491Z,80.17
2017-09-16T05:37:14.059Z,79.98
2017-09-16T05:37:54.636Z,80.17
2017-09-16T05:38:35.199Z,79.64
2017-09-16T05:39:15.755Z,79.41
2017-09-16T05:39:56.298Z,80.21
2017-09-16T05:40:36.834Z,79.93
2017-09-16T05:41:17.395Z,79.98
2017-09-16T05:41:57.954Z,80.21
2017-09-16T05:42:38.468Z,80.17
2017-09-16T05:43:19.013Z,79.93
2017-09-16T05:43:59.557Z,79.69
2017-09-16T05:44:40.098Z,80.36
2017-09-16T05:45:20.665Z,80.74
2017-09-16T05:46:01.236Z,80.4
2017-09-16T05:46:41.787Z,80.36
2017-09-16T05:47:22.349Z,80.46
2017-09-16T05:48:02.915Z,80.27
2017-09-16T05:48:43.513Z,80.4
2017-09-16T05:49:24.039Z,80.5
2017-09-16T05:50:04.608Z,80.3
2017-09-16T05:50:45.157Z,79.83
2017-09-16T05:51:25.723Z,79.93
2017-09-16T05:52:06.285Z,80.11
2017-09-16T05:52:46.888Z,79.98
2017-09-16T05:53:27.396Z,80.3
2017-09-16T05:54:07.949Z,80.21
2017-09-16T05:54:48.494Z,79.73
2017-09-16T05:55:29.066Z,79.93
2017-09-16T05:56:09.636Z,79.64
2017-09-16T05:56:50.213Z,80.11
2017-09-16T05:57:30.784Z,79.73
2017-09-16T05:58:11.340Z,79.83
2017-09-16T05:58:51.896Z,80.02
2017-09-16T05:59:32.464Z,80.11
2017-09-16T06:00:13.048Z,80.02
2017-09-16T06:00:53.610Z,80.02
2017-09-16T06:01:34.174Z,80.17
2017-09-16T06:02:14.751Z,80.02
2017-09-16T06:02:55.329Z,79.93
2017-09-16T06:03:35.948Z,79.69
2017-09-16T06:04:16.526Z,80.11
2017-09-16T06:04:57.064Z,79.54
2017-09-16T06:05:37.621Z,80.21
2017-09-16T06:06:18.186Z,80.02
2017-09-16T06:06:58.748Z,80.4
2017-09-16T06:07:39.322Z,80.4
2017-09-16T06:08:19.866Z,80.4
2017-09-16T06:09:00.414Z,80.5
2017-09-16T06:09:40.963Z,80.59
2017-09-16T06:10:21.522Z,79.93
2017-09-16T06:11:02.086Z,79.73
2017-09-16T06:11:42.663Z,79.83
2017-09-16T06:12:23.198Z,79.93
2017-09-16T06:13:03.764Z,80.5
2017-09-16T06:13:44.315Z,80.02
2017-09-16T06:14:24.882Z,80.5
2017-09-16T06:15:05.442Z,80.59
2017-09-16T06:15:46.004Z,80.59
2017-09-16T06:16:26.579Z,80.59
2017-09-16T06:17:07.150Z,79.93
2017-09-16T06:17:47.701Z,80.21
2017-09-16T06:18:28.261Z,80.11
2017-09-16T06:19:08.811Z,79.54
2017-09-16T06:19:49.374Z,80.11
2017-09-16T06:20:29.948Z,79.35
2017-09-16T06:21:10.506Z,79.44
2017-09-16T06:21:51.069Z,80.11
2017-09-16T06:22:31.616Z,79.54
2017-09-16T06:23:12.187Z,79.73
2017-09-16T06:23:52.735Z,79.73
2017-09-16T06:24:33.249Z,79.64
2017-09-16T06:25:13.825Z,80.02
2017-09-16T06:25:54.425Z,79.35
2017-09-16T06:26:34.985Z,79.35
2017-09-16T06:27:15.537Z,80.21
2017-09-16T06:27:56.103Z,80.11
2017-09-16T06:28:36.804Z,79.83
2017-09-16T06:29:17.356Z,80.02
2017-09-16T06:29:57.920Z,79.93
2017-09-16T06:30:38.494Z,80.5
2017-09-16T06:31:19.086Z,80.79
2017-09-16T06:31:59.640Z,80.4
2017-09-16T06:32:40.199Z,79.96
2017-09-16T06:33:20.736Z,79.64
2017-09-16T06:34:01.293Z,79.64
2017-09-16T06:34:41.865Z,80.16
2017-09-16T06:35:22.472Z,79.29
2017-09-16T06:36:03.026Z,79.87
2017-09-16T06:36:43.580Z,79.87
2017-09-16T06:37:24.156Z,79.68
2017-09-16T06:38:04.704Z,79.87
2017-09-16T06:38:45.272Z,79.29
2017-09-16T06:39:25.836Z,79.2
2017-09-16T06:40:06.399Z,78.91
2017-09-16T06:40:46.973Z,78.14
2017-09-16T06:41:27.523Z,78.14
2017-09-16T06:42:08.100Z,78.81
2017-09-16T06:42:48.665Z,78.63
2017-09-16T06:43:29.188Z,78.24
2017-09-16T06:44:09.753Z,78.43
2017-09-16T06:44:50.311Z,78.24
2017-09-16T06:45:30.853Z,78.24
2017-09-16T06:46:11.419Z,77.67
2017-09-16T06:46:51.984Z,78.14
2017-09-16T06:47:32.542Z,78.14
2017-09-16T06:48:13.120Z,77.95
2017-09-16T06:48:53.679Z,77.95
2017-09-16T06:49:34.235Z,77.57
2017-09-16T06:50:14.798Z,76.84
2017-09-16T06:50:55.355Z,76.81
2017-09-16T06:51:35.924Z,77.61
2017-09-16T06:52:16.479Z,77.61
2017-09-16T06:52:57.043Z,77.33
2017-09-16T06:53:37.609Z,77.23
2017-09-16T06:54:18.165Z,77.23
2017-09-16T06:54:58.696Z,77.23
2017-09-16T06:55:39.250Z,77.04
2017-09-16T06:56:19.828Z,76.65
2017-09-16T06:57:00.314Z,76.94
2017-09-16T06:57:40.841Z,76.4
2017-09-16T06:58:21.368Z,75.93
2017-09-16T06:59:01.931Z,75.83
2017-09-16T06:59:42.514Z,75.73
2017-09-16T07:00:23.099Z,75.26
2017-09-16T07:01:03.632Z,75.2
2017-09-16T07:01:44.199Z,74.72
2017-09-16T07:02:24.769Z,74.43
2017-09-16T07:03:05.334Z,74.62
2017-09-16T07:03:45.891Z,74.91
2017-09-16T07:04:26.443Z,74.82
2017-09-16T07:05:07.028Z,74.62
2017-09-16T07:05:47.600Z,74.43
2017-09-16T07:06:28.169Z,75.01
2017-09-16T07:07:08.731Z,74.05
2017-09-16T07:07:49.284Z,73.38
2017-09-16T07:08:29.864Z,74.24
2017-09-16T07:09:10.430Z,74.05
2017-09-16T07:09:50.992Z,73.82
2017-09-16T07:10:31.560Z,74.4
2017-09-16T07:11:12.125Z,75.16
2017-09-16T07:11:52.683Z,74.2
2017-09-16T07:12:33.254Z,74.36
2017-09-16T07:13:13.816Z,75.07
2017-09-16T07:13:54.356Z,75.98
2017-09-16T07:14:34.905Z,76.46
2017-09-16T07:15:15.483Z,76.56
2017-09-16T07:15:56.030Z,76.65
2017-09-16T07:16:36.581Z,77.04
2017-09-16T07:17:17.194Z,77.04
2017-09-16T07:17:57.731Z,76.94
2017-09-16T07:18:38.285Z,76.27
2017-09-16T07:19:18.848Z,76.5
2017-09-16T07:19:59.411Z,76.4
2017-09-16T07:20:39.973Z,76.6
2017-09-16T07:21:20.533Z,76.02
2017-09-16T07:22:01.108Z,76.12
2017-09-16T07:22:41.649Z,76.4
2017-09-16T07:23:22.196Z,75.73
2017-09-16T07:24:02.756Z,75.93
2017-09-16T07:24:43.301Z,75.54
2017-09-16T07:25:23.864Z,75.54
2017-09-16T07:26:04.400Z,76.02
2017-09-16T07:26:44.927Z,76.06
2017-09-16T07:27:25.491Z,76.31
2017-09-16T07:28:06.050Z,76.4
2017-09-16T07:28:46.615Z,75.87
2017-09-16T07:29:27.179Z,75.58
2017-09-16T07:30:07.717Z,75.77
2017-09-16T07:30:48.272Z,75.58
2017-09-16T07:31:28.826Z,75.68
2017-09-16T07:32:09.379Z,75.68
2017-09-16T07:32:49.936Z,75.68
2017-09-16T07:33:30.502Z,75.58
2017-09-16T07:34:11.052Z,75.58
2017-09-16T07:34:51.620Z,75.01
2017-09-16T07:35:32.177Z,74.43
2017-09-16T07:36:12.728Z,73.63
2017-09-16T07:36:53.311Z,74.97
2017-09-16T07:37:33.870Z,75.26
2017-09-16T07:38:14.435Z,75.83
2017-09-16T07:38:54.992Z,76.21
2017-09-16T07:39:35.522Z,75.64
2017-09-16T07:40:16.067Z,76.12
2017-09-16T07:40:56.650Z,76.31
2017-09-16T07:41:37.193Z,77.26
2017-09-16T07:42:17.724Z,77.08
2017-09-16T07:42:58.338Z,76.98
2017-09-16T07:43:38.873Z,76.92
2017-09-16T07:44:19.449Z,76.73
2017-09-16T07:45:00.009Z,76.44
2017-09-16T07:45:40.572Z,75.96
2017-09-16T07:46:21.157Z,76.06
2017-09-16T07:47:01.692Z,76.06
2017-09-16T07:47:42.393Z,76.15
2017-09-16T07:48:22.950Z,75.96
2017-09-16T07:49:03.499Z,75.87
2017-09-16T07:49:44.041Z,75.2
2017-09-16T07:50:24.623Z,75.87
2017-09-16T07:51:05.188Z,76.64
2017-09-16T07:51:45.745Z,76.54
2017-09-16T07:52:26.318Z,76.06
2017-09-16T07:53:06.877Z,76.35
2017-09-16T07:53:47.578Z,75.96
2017-09-16T07:54:28.075Z,76.15
2017-09-16T07:55:08.618Z,75.87
2017-09-16T07:55:49.165Z,75.29
2017-09-16T07:56:29.736Z,75.33
2017-09-16T07:57:10.303Z,75.71
2017-09-16T07:57:50.850Z,76
2017-09-16T07:58:31.381Z,75.04
2017-09-16T07:59:11.949Z,75.23
2017-09-16T07:59:52.504Z,75.33
2017-09-16T08:00:33.060Z,75.33
2017-09-16T08:01:13.646Z,75.23
2017-09-16T08:01:54.195Z,75.04
2017-09-16T08:02:34.781Z,75.9
2017-09-16T08:03:15.328Z,75.04
2017-09-16T08:03:55.920Z,75.14
2017-09-16T08:04:36.474Z,74.95
2017-09-16T08:05:17.015Z,75.52
2017-09-16T08:05:57.586Z,75.62
2017-09-16T08:06:38.127Z,75.71
2017-09-16T08:07:18.668Z,75.81
2017-09-16T08:07:59.197Z,75.43
2017-09-16T08:08:39.786Z,75.04
2017-09-16T08:09:20.352Z,75.43
2017-09-16T08:10:00.901Z,75.33
2017-09-16T08:10:41.476Z,75.04
2017-09-16T08:11:22.062Z,75.14
2017-09-16T08:12:02.618Z,74.76
2017-09-16T08:12:43.267Z,74.47
2017-09-16T08:13:23.966Z,74.95
2017-09-16T08:14:04.496Z,74.95
2017-09-16T08:14:45.072Z,75.33
2017-09-16T08:15:25.757Z,74.79
2017-09-16T08:16:06.319Z,74.79
2017-09-16T08:16:46.888Z,75.08
2017-09-16T08:17:27.455Z,74.31
2017-09-16T08:18:08.023Z,74.31
2017-09-16T08:18:48.616Z,74.02
2017-09-16T08:19:29.229Z,74.22
2017-09-16T08:20:09.777Z,74.98
2017-09-16T08:20:50.328Z,74.12
2017-09-16T08:21:30.850Z,73.83
2017-09-16T08:22:11.411Z,74.41
2017-09-16T08:22:51.964Z,74.41
2017-09-16T08:23:32.554Z,74.37
2017-09-16T08:24:13.243Z,74.6
2017-09-16T08:24:53.794Z,75.33
2017-09-16T08:25:34.399Z,75.27
2017-09-16T08:26:14.899Z,75.14
2017-09-16T08:26:55.444Z,75.43
2017-09-16T08:27:36.050Z,75.08
2017-09-16T08:28:16.550Z,75.08
2017-09-16T08:28:57.137Z,75.56
2017-09-16T08:29:37.674Z,74.89
2017-09-16T08:30:18.229Z,74.08
2017-09-16T08:30:58.899Z,75.96
2017-09-16T08:31:39.448Z,76.48
2017-09-16T08:32:20.001Z,76.39
2017-09-16T08:33:00.530Z,76.1
2017-09-16T08:33:41.085Z,76.19
2017-09-16T08:34:21.625Z,76.57
2017-09-16T08:35:02.170Z,76.1
2017-09-16T08:35:42.765Z,76.29
2017-09-16T08:36:23.357Z,76.29
2017-09-16T08:37:03.875Z,76.57
2017-09-16T08:37:44.611Z,77.09
2017-09-16T08:38:25.081Z,76.71
2017-09-16T08:39:05.644Z,75.95
2017-09-16T08:39:46.202Z,76.23
2017-09-16T08:40:26.747Z,75.95
2017-09-16T08:41:07.274Z,76.29
2017-09-16T08:41:47.848Z,75.75
2017-09-16T08:42:28.389Z,75.75
2017-09-16T08:43:08.929Z,75.95
2017-09-16T08:43:49.482Z,76.04